Bone, Idaho
Current Conditions -  °F | °C
As of 1:53 PM on Friday 19 Dec 2014 (Local Time) from KIDA Reporting Station
Haze Haze  
Wind Chill: 33°   Ceiling: 6500
Heat Index: 38°   Visibility: 10mi
Dew Point: 31°   Wind: 6mph
Humidity: 76%   Direction: 230°SW
Pressure: 30.07"   Gusts: NA
Location:  43.498°N, 111.73°W
Report Text: KIDA 192053Z 23005KT 10SM HZ BKN065 OVC080 03/M01 A3007 RMK AO2 SLP199 T00331006 56018
Loading
Personal Weather Stations






























Interactive Weather Map New forecast layout! Learn more

10-Day Weather Forecast

Advertisements
Track Severe Weather on mobile